Time;durP1;ratioP1;P1;durP2;ratioP2;P2;SDS_P1;SDS_P2;PMS_P1;PMS_P2;Temp;Humidity;BMP_temperature;BMP_pressure;BME280_temperature;BME280_humidity;BME280_pressure;Samples;Min_cycle;Max_cycle;Signal;HPM_P1;HPM_P2
2022/02/07 00:01:01;;;;;;;;;;;5.30;98.50;;;;;;6193603;23;19908;-90
2022/02/07 00:06:08;;;;;;;;;;;5.30;98.80;;;;;;6220188;23;19967;-91
2022/02/07 00:08:35;;;;;;;;;;;5.40;98.90;;;;;;6193020;23;19908;-90
2022/02/07 00:11:01;;;;;;;;;;;5.40;98.80;;;;;;6192412;23;19904;-90
2022/02/07 00:13:29;;;;;;;;;;;5.30;98.90;;;;;;6193194;23;19911;-91
2022/02/07 00:16:04;;;;;;;;;;;5.40;99.00;;;;;;6219802;23;20329;-90
2022/02/07 00:18:34;;;;;;;;;;;5.40;99.00;;;;;;6193216;23;19995;-90
2022/02/07 00:21:09;;;;;;;;;;;5.40;99.00;;;;;;6217873;23;19914;-90
2022/02/07 00:23:37;;;;;;;;;;;5.40;99.00;;;;;;6192892;23;19904;-91
2022/02/07 00:26:03;;;;;;;;;;;5.50;98.60;;;;;;6192619;23;20005;-91
2022/02/07 00:28:31;;;;;;;;;;;5.50;98.30;;;;;;6192884;23;19908;-90
2022/02/07 00:31:07;;;;;;;;;;;5.50;98.20;;;;;;6192843;23;20015;-90
2022/02/07 00:33:40;;;;;;;;;;;5.50;97.90;;;;;;6193107;23;19936;-88
2022/02/07 00:36:14;;;;;;;;;;;5.40;97.40;;;;;;6192901;23;19904;-89
2022/02/07 00:38:46;;;;;;;;;;;5.30;97.50;;;;;;6218414;23;19911;-91
2022/02/07 00:41:23;;;;;;;;;;;5.30;97.00;;;;;;6193289;23;19912;-91
2022/02/07 00:43:56;;;;;;;;;;;5.30;97.10;;;;;;6192012;23;19916;-90
2022/02/07 00:46:33;;;;;;;;;;;5.20;96.70;;;;;;6193256;23;19904;-91
2022/02/07 00:49:01;;;;;;;;;;;5.20;96.80;;;;;;6193014;23;19912;-91
2022/02/07 00:51:27;;;;;;;;;;;5.20;96.80;;;;;;6219679;23;19904;-89
2022/02/07 00:54:00;;;;;;;;;;;5.20;96.70;;;;;;6218609;23;19904;-88
2022/02/07 00:56:33;;;;;;;;;;;5.20;96.50;;;;;;6195013;23;19904;-90
2022/02/07 00:59:02;;;;;;;;;;;5.20;96.70;;;;;;6198469;23;19928;-91
2022/02/07 01:01:32;;;;;;;;;;;5.20;96.70;;;;;;6218961;23;19896;-90
2022/02/07 01:04:18;;;;;;;;;;;;;;;;;;;;;
2022/02/07 01:06:52;;;;;;;;;;;5.20;97.00;;;;;;6244380;23;19909;-91
2022/02/07 01:09:25;;;;;;;;;;;5.20;97.20;;;;;;6199603;23;19911;-90
2022/02/07 01:14:51;;;;;;;;;;;5.10;97.50;;;;;;6229758;23;20308;-91
2022/02/07 01:58:02;;;;;;;;;;;4.90;98.20;;;;;;6228368;23;19975;-90
2022/02/07 02:00:28;;;;;;;;;;;4.90;98.20;;;;;;6192291;23;19908;-90
2022/02/07 02:02:56;;;;;;;;;;;4.90;98.00;;;;;;6192152;23;19910;-91
2022/02/07 02:05:27;;;;;;;;;;;4.90;98.00;;;;;;6192676;23;19904;-90
2022/02/07 02:07:53;;;;;;;;;;;4.90;97.90;;;;;;6191632;23;19911;-90
2022/02/07 02:10:21;;;;;;;;;;;4.90;97.90;;;;;;6219016;23;19931;-90
2022/02/07 02:15:55;;;;;;;;;;;5.00;98.00;;;;;;6217924;23;19908;-91
2022/02/07 02:18:57;;;;;;;;;;;5.00;98.00;;;;;;6192356;23;19912;-91
2022/02/07 02:45:37;;;;;;;;;;;5.00;98.30;;;;;;6218028;23;19915;-91
2022/02/07 02:48:10;;;;;;;;;;;5.10;98.40;;;;;;6192138;23;19959;-91
2022/02/07 02:50:41;;;;;;;;;;;5.00;98.60;;;;;;6192062;23;19904;-89
2022/02/07 02:53:14;;;;;;;;;;;5.10;98.70;;;;;;6191915;23;19932;-90
2022/02/07 02:55:49;;;;;;;;;;;5.10;98.80;;;;;;6192371;23;19926;-91
2022/02/07 02:58:34;;;;;;;;;;;5.10;98.80;;;;;;6191878;23;19919;-89
2022/02/07 03:01:00;;;;;;;;;;;5.10;98.90;;;;;;6191824;23;19960;-90
2022/02/07 03:03:28;;;;;;;;;;;5.10;98.80;;;;;;6192137;23;20226;-90
2022/02/07 03:05:54;;;;;;;;;;;5.10;98.80;;;;;;6192249;23;19971;-91
2022/02/07 03:08:25;;;;;;;;;;;5.10;98.80;;;;;;6194190;23;20386;-89
2022/02/07 03:13:44;;;;;;;;;;;5.20;98.70;;;;;;6221305;23;19912;-90
2022/02/07 03:18:59;;;;;;;;;;;5.20;98.50;;;;;;6221590;23;20342;-89
2022/02/07 03:21:28;;;;;;;;;;;5.20;98.50;;;;;;6205555;23;19919;-89
2022/02/07 03:23:59;;;;;;;;;;;5.20;98.50;;;;;;6207608;23;19904;-88
2022/02/07 03:26:27;;;;;;;;;;;5.20;98.30;;;;;;6206225;23;19904;-88
2022/02/07 03:28:53;;;;;;;;;;;5.20;98.30;;;;;;6199970;23;19904;-90
2022/02/07 03:31:19;;;;;;;;;;;5.20;98.30;;;;;;6199021;23;20363;-89
2022/02/07 03:33:56;;;;;;;;;;;5.20;98.30;;;;;;6195949;23;20317;-91
2022/02/07 03:36:30;;;;;;;;;;;5.20;98.30;;;;;;6194799;23;19990;-89
2022/02/07 03:39:19;;;;;;;;;;;5.20;98.40;;;;;;6194230;23;19908;-89
2022/02/07 03:41:46;;;;;;;;;;;5.20;98.40;;;;;;6220045;23;19931;-90
2022/02/07 03:44:14;;;;;;;;;;;5.20;98.40;;;;;;6194338;23;19970;-91
2022/02/07 03:47:00;;;;;;;;;;;5.30;98.30;;;;;;6194640;23;19908;-90
2022/02/07 03:49:31;;;;;;;;;;;5.20;98.20;;;;;;6193957;23;19904;-91
2022/02/07 03:52:02;;;;;;;;;;;5.20;98.30;;;;;;6232424;23;19908;-89
2022/02/07 03:54:30;;;;;;;;;;;5.20;98.30;;;;;;6219539;23;19892;-91
2022/02/07 03:57:04;;;;;;;;;;;5.20;98.30;;;;;;6219444;23;19892;-90
2022/02/07 03:59:49;;;;;;;;;;;5.20;98.30;;;;;;6215662;23;20221;-91
2022/02/07 04:02:20;;;;;;;;;;;5.20;98.10;;;;;;6194189;23;19930;-90
2022/02/07 04:05:31;;;;;;;;;;;5.30;98.30;;;;;;6193622;23;19904;-90
2022/02/07 04:07:51;;;;;;;;;;;5.30;98.40;;;;;;6218957;23;19908;-91
2022/02/07 04:10:24;;;;;;;;;;;5.30;98.20;;;;;;6192915;23;19908;-90
2022/02/07 04:12:56;;;;;;;;;;;5.40;98.30;;;;;;6193294;23;20330;-91
2022/02/07 04:15:22;;;;;;;;;;;5.30;98.30;;;;;;6218225;23;19904;-91
2022/02/07 04:18:15;;;;;;;;;;;;;;;;;;;;;
2022/02/07 04:20:45;;;;;;;;;;;5.40;98.20;;;;;;6218525;23;19991;-90
2022/02/07 04:23:13;;;;;;;;;;;5.50;98.10;;;;;;6193385;23;19930;-91
2022/02/07 04:25:47;;;;;;;;;;;5.50;98.20;;;;;;6193128;23;19911;-89
2022/02/07 04:28:26;;;;;;;;;;;;;;;;;;;;;
2022/02/07 04:30:51;;;;;;;;;;;5.50;98.00;;;;;;6220226;23;19982;-91
2022/02/07 04:33:29;;;;;;;;;;;;;;;;;;;;;
2022/02/07 04:36:04;;;;;;;;;;;5.50;97.80;;;;;;6219254;23;19982;-89
2022/02/07 04:38:33;;;;;;;;;;;5.50;97.90;;;;;;6192395;23;20279;-90
2022/02/07 04:41:11;;;;;;;;;;;;;;;;;;;;;
2022/02/07 04:43:47;;;;;;;;;;;5.60;97.80;;;;;;6218670;23;19994;-90
2022/02/07 04:52:22;;;;;;;;;;;5.70;97.20;;;;;;6218073;23;20018;-90
2022/02/07 04:55:04;;;;;;;;;;;5.70;97.20;;;;;;6192766;23;19935;-90
2022/02/07 05:03:16;;;;;;;;;;;5.80;97.00;;;;;;6219242;23;19904;-91
2022/02/07 05:13:59;;;;;;;;;;;5.90;97.20;;;;;;6230010;23;19987;-90
2022/02/07 05:16:29;;;;;;;;;;;6.00;97.30;;;;;;6228021;23;19947;-91
2022/02/07 05:19:05;;;;;;;;;;;6.00;97.40;;;;;;6216101;23;19924;-90
2022/02/07 05:21:33;;;;;;;;;;;6.00;97.30;;;;;;6218859;23;19915;-92
2022/02/07 05:24:01;;;;;;;;;;;6.10;97.30;;;;;;6242107;23;19923;-91
2022/02/07 05:26:30;;;;;;;;;;;6.00;97.10;;;;;;6211612;23;19928;-91
2022/02/07 05:29:08;;;;;;;;;;;6.10;97.10;;;;;;6194914;23;19904;-89
2022/02/07 05:31:36;;;;;;;;;;;6.10;97.30;;;;;;6193176;23;19971;-92
2022/02/07 05:34:02;;;;;;;;;;;6.10;97.50;;;;;;6220652;23;19915;-90
2022/02/07 05:36:42;;;;;;;;;;;6.10;97.30;;;;;;6195346;23;20221;-90
2022/02/07 05:39:15;;;;;;;;;;;6.10;97.30;;;;;;6192966;23;19908;-89
2022/02/07 05:42:05;;;;;;;;;;;6.10;97.30;;;;;;6193228;23;19911;-89
2022/02/07 05:44:33;;;;;;;;;;;6.10;97.20;;;;;;6162763;23;19977;-91
2022/02/07 05:47:01;;;;;;;;;;;6.20;97.20;;;;;;6162321;23;19904;-93
2022/02/07 05:52:32;;;;;;;;;;;6.20;97.50;;;;;;6189471;23;19916;-93
2022/02/07 05:55:18;;;;;;;;;;;6.10;97.50;;;;;;6163544;23;19904;-90
2022/02/07 06:00:54;;;;;;;;;;;;;;;;;;;;;
2022/02/07 06:06:41;;;;;;;;;;;6.20;97.60;;;;;;6174461;23;19927;-91
2022/02/07 06:09:19;;;;;;;;;;;6.20;97.60;;;;;;6170703;23;19959;-91
2022/02/07 06:11:55;;;;;;;;;;;6.20;97.60;;;;;;6169464;23;19995;-91
2022/02/07 06:14:52;;;;;;;;;;;6.20;97.50;;;;;;6196235;23;19904;-92
2022/02/07 06:17:32;;;;;;;;;;;6.20;97.60;;;;;;6196433;23;19908;-89
2022/02/07 06:20:16;;;;;;;;;;;6.20;97.60;;;;;;6171422;23;19995;-89
2022/02/07 06:26:42;;;;;;;;;;;;;;;;;;;;;
2022/02/07 06:32:40;;;;;;;;;;;;;;;;;;;;;
2022/02/07 06:41:32;;;;;;;;;;;;;;;;;;;;;
2022/02/07 06:53:00;;;;;;;;;;;6.10;97.90;;;;;;6125529;23;19913;-95
2022/02/07 07:05:54;;;;;;;;;;;;;;;;;;;;;
2022/02/07 07:17:51;;;;;;;;;;;6.00;98.20;;;;;;5888561;24;19912;-92
2022/02/07 07:24:04;;;;;;;;;;;;;;;;;;;;;
2022/02/07 07:29:56;;;;;;;;;;;5.90;98.30;;;;;;6014044;23;19950;-93
2022/02/07 07:32:29;;;;;;;;;;;5.90;98.30;;;;;;5990059;23;19917;-93
2022/02/07 07:38:23;;;;;;;;;;;;;;;;;;;;;
2022/02/07 07:47:46;;;;;;;;;;;;;;;;;;;;;
2022/02/07 08:14:24;;;;;;;;;;;5.90;98.70;;;;;;6219227;23;19900;-89
2022/02/07 08:20:21;;;;;;;;;;;5.90;98.80;;;;;;6234873;23;19908;-95
2022/02/07 08:23:11;;;;;;;;;;;5.90;98.90;;;;;;6219098;23;19922;-93
2022/02/07 08:26:08;;;;;;;;;;;;;;;;;;;;;
2022/02/07 08:32:13;;;;;;;;;;;;;;;;;;;;;
2022/02/07 08:35:03;;;;;;;;;;;;;;;;;;;;;
2022/02/07 08:38:06;;;;;;;;;;;;;;;;;;;;;
2022/02/07 08:40:48;;;;;;;;;;;;;;;;;;;;;
2022/02/07 08:43:18;;;;;;;;;;;6.10;99.10;;;;;;6221106;23;20285;-93
2022/02/07 08:48:44;;;;;;;;;;;6.10;99.00;;;;;;6220104;23;19912;-93
2022/02/07 08:51:45;;;;;;;;;;;;;;;;;;;;;
2022/02/07 08:54:26;;;;;;;;;;;6.20;99.10;;;;;;6219300;23;19935;-93
2022/02/07 08:57:52;;;;;;;;;;;6.20;99.10;;;;;;6196619;23;19914;-93
2022/02/07 09:00:18;;;;;;;;;;;6.20;99.20;;;;;;6228187;23;19911;-93
2022/02/07 09:08:52;;;;;;;;;;;6.30;99.30;;;;;;6234265;23;19927;-94
2022/02/07 09:11:06;;;;;;;;;;;6.40;99.30;;;;;;6223030;23;20242;-93
2022/02/07 09:13:44;;;;;;;;;;;6.50;99.30;;;;;;6208892;23;19908;-93
2022/02/07 09:18:46;;;;;;;;;;;6.50;99.40;;;;;;6235138;23;19908;-91
2022/02/07 09:21:28;;;;;;;;;;;6.60;99.50;;;;;;6195261;23;19919;-91
2022/02/07 09:23:57;;;;;;;;;;;6.60;99.50;;;;;;6193513;23;19954;-92
2022/02/07 09:26:32;;;;;;;;;;;6.60;99.50;;;;;;6191884;23;19920;-90
2022/02/07 09:29:31;;;;;;;;;;;;;;;;;;;;;
2022/02/07 09:32:16;;;;;;;;;;;;;;;;;;;;;
2022/02/07 09:35:36;;;;;;;;;;;;;;;;;;;;;
2022/02/07 09:39:12;;;;;;;;;;;;;;;;;;;;;
2022/02/07 09:53:16;;;;;;;;;;;7.10;99.30;;;;;;6172361;23;19999;-95
2022/02/07 09:55:38;;;;;;;;;;;7.20;99.10;;;;;;6158129;23;19912;-94
2022/02/07 09:58:38;;;;;;;;;;;;;;;;;;;;;
2022/02/07 10:01:26;;;;;;;;;;;;;;;;;;;;;
2022/02/07 10:17:15;;;;;;;;;;;;;;;;;;;;;
2022/02/07 10:53:34;;;;;;;;;;;;;;;;;;;;;
2022/02/07 10:56:18;;;;;;;;;;;8.00;96.80;;;;;;6165537;23;19982;-94
2022/02/07 11:09:12;;;;;;;;;;;8.10;96.00;;;;;;6041722;23;19909;-93
2022/02/07 11:30:11;;;;;;;;;;;;;;;;;;;;;
2022/02/07 11:32:58;;;;;;;;;;;;;;;;;;;;;
2022/02/07 11:38:43;;;;;;;;;;;;;;;;;;;;;
2022/02/07 11:41:30;;;;;;;;;;;7.90;95.00;;;;;;6141222;23;19941;-94
2022/02/07 11:44:24;;;;;;;;;;;;;;;;;;;;;
2022/02/07 11:57:09;;;;;;;;;;;;;;;;;;;;;
2022/02/07 12:00:01;;;;;;;;;;;7.90;94.40;;;;;;6132999;23;19925;-94
2022/02/07 12:12:41;;;;;;;;;;;;;;;;;;;;;
2022/02/07 12:15:40;;;;;;;;;;;8.00;94.30;;;;;;6111854;23;19921;-94
2022/02/07 12:21:28;;;;;;;;;;;;;;;;;;;;;
2022/02/07 12:24:38;;;;;;;;;;;8.20;94.80;;;;;;6224475;23;20338;-96
2022/02/07 13:02:17;;;;;;;;;;;;;;;;;;;;;
2022/02/07 13:08:22;;;;;;;;;;;8.40;93.00;;;;;;6231357;23;19903;-94
2022/02/07 13:14:21;;;;;;;;;;;;;;;;;;;;;
2022/02/07 13:23:46;;;;;;;;;;;;;;;;;;;;;
2022/02/07 13:39:56;;;;;;;;;;;8.30;92.40;;;;;;5975660;24;20001;-95
2022/02/07 13:58:50;;;;;;;;;;;;;;;;;;;;;
2022/02/07 14:10:58;;;;;;;;;;;;;;;;;;;;;
2022/02/07 15:38:24;;;;;;;;;;;;;;;;;;;;;
2022/02/07 15:54:12;;;;;;;;;;;;;;;;;;;;;
2022/02/07 15:57:22;;;;;;;;;;;8.00;92.50;;;;;;6264479;23;19898;-94
2022/02/07 16:00:10;;;;;;;;;;;8.00;92.60;;;;;;6256041;23;19946;-95
2022/02/07 16:09:16;;;;;;;;;;;8.00;92.30;;;;;;6247671;23;19910;-94
2022/02/07 16:18:50;;;;;;;;;;;7.90;92.60;;;;;;6100687;23;20243;-92
2022/02/07 16:24:37;;;;;;;;;;;7.90;92.80;;;;;;5958782;24;19914;-89
2022/02/07 16:37:43;;;;;;;;;;;7.70;92.50;;;;;;5882116;24;19924;-93
2022/02/07 16:40:35;;;;;;;;;;;7.70;92.60;;;;;;5941979;24;19915;-93
2022/02/07 16:49:36;;;;;;;;;;;7.70;92.80;;;;;;5958586;24;19915;-94
2022/02/07 16:55:37;;;;;;;;;;;;;;;;;;;;;
2022/02/07 17:01:45;;;;;;;;;;;;;;;;;;;;;
2022/02/07 17:04:41;;;;;;;;;;;7.50;92.50;;;;;;6240524;23;20022;-91
2022/02/07 17:07:46;;;;;;;;;;;;;;;;;;;;;
2022/02/07 17:10:48;;;;;;;;;;;;;;;;;;;;;
2022/02/07 17:13:37;;;;;;;;;;;;;;;;;;;;;
2022/02/07 17:17:02;;;;;;;;;;;;;;;;;;;;;
2022/02/07 17:19:10;;;;;;;;;;;7.50;92.80;;;;;;6259232;22;19904;-94
2022/02/07 17:22:06;;;;;;;;;;;;;;;;;;;;;
2022/02/07 17:24:42;;;;;;;;;;;7.50;93.10;;;;;;6268871;22;19892;-90
2022/02/07 17:27:18;;;;;;;;;;;;;;;;;;;;;
2022/02/07 17:32:41;;;;;;;;;;;7.40;93.10;;;;;;6268191;22;20345;-94
2022/02/07 17:41:38;;;;;;;;;;;7.40;92.90;;;;;;6200881;23;19982;-90
2022/02/07 17:44:10;;;;;;;;;;;7.30;92.80;;;;;;6254116;22;19904;-90
2022/02/07 17:46:41;;;;;;;;;;;7.30;92.80;;;;;;6236204;22;19908;-90
2022/02/07 17:49:29;;;;;;;;;;;7.30;92.90;;;;;;6283615;22;19903;-92
2022/02/07 17:52:07;;;;;;;;;;;;;;;;;;;;;
2022/02/07 17:54:59;;;;;;;;;;;7.30;93.00;;;;;;6314690;22;19946;-91
2022/02/07 17:58:20;;;;;;;;;;;7.30;93.00;;;;;;6314659;22;20359;-90
2022/02/07 18:00:24;;;;;;;;;;;7.30;93.00;;;;;;6299513;22;19907;-90
2022/02/07 18:03:09;;;;;;;;;;;7.20;93.00;;;;;;6289298;22;20236;-91
2022/02/07 18:12:15;;;;;;;;;;;7.20;93.20;;;;;;6316035;22;19951;-94
2022/02/07 18:15:27;;;;;;;;;;;;;;;;;;;;;
2022/02/07 18:53:49;;;;;;;;;;;7.10;93.60;;;;;;6220382;23;19908;-95
2022/02/07 19:09:43;;;;;;;;;;;;;;;;;;;;;
2022/02/07 19:15:37;;;;;;;;;;;;;;;;;;;;;
2022/02/07 19:21:29;;;;;;;;;;;7.00;93.90;;;;;;6214967;23;19904;-94
2022/02/07 19:27:48;;;;;;;;;;;7.00;94.00;;;;;;6150738;23;19905;-92
2022/02/07 19:30:43;;;;;;;;;;;7.00;94.10;;;;;;6140933;23;19943;-92
2022/02/07 19:36:16;;;;;;;;;;;7.00;94.20;;;;;;6124744;23;19905;-93
2022/02/07 19:38:56;;;;;;;;;;;7.00;94.10;;;;;;6139059;23;19913;-95
2022/02/07 19:42:38;;;;;;;;;;;;;;;;;;;;;
2022/02/07 19:44:35;;;;;;;;;;;7.00;94.20;;;;;;6149560;23;20006;-92
2022/02/07 19:53:09;;;;;;;;;;;;;;;;;;;;;
2022/02/07 19:56:21;;;;;;;;;;;7.00;94.20;;;;;;6256853;23;19923;-92
2022/02/07 19:58:54;;;;;;;;;;;6.90;94.10;;;;;;6139926;23;19940;-91
2022/02/07 20:01:31;;;;;;;;;;;6.90;94.10;;;;;;6229125;23;19923;-93
2022/02/07 20:04:03;;;;;;;;;;;6.90;94.10;;;;;;6230469;23;19918;-91
2022/02/07 20:06:51;;;;;;;;;;;6.90;94.10;;;;;;6230542;23;19910;-92
2022/02/07 20:09:21;;;;;;;;;;;6.90;94.20;;;;;;6216249;23;19950;-92
2022/02/07 20:21:00;;;;;;;;;;;6.80;94.20;;;;;;6257254;23;20017;-90
2022/02/07 20:23:47;;;;;;;;;;;6.70;94.20;;;;;;6231024;23;19904;-91
2022/02/07 20:26:12;;;;;;;;;;;6.70;94.30;;;;;;6240704;22;19896;-92
2022/02/07 20:28:40;;;;;;;;;;;6.70;94.30;;;;;;6249177;22;19898;-94
2022/02/07 20:31:09;;;;;;;;;;;6.60;94.30;;;;;;6249802;22;19896;-91
2022/02/07 20:33:38;;;;;;;;;;;6.60;94.30;;;;;;6248680;23;19927;-92
2022/02/07 20:36:32;;;;;;;;;;;;;;;;;;;;;
2022/02/07 20:39:11;;;;;;;;;;;;;;;;;;;;;
2022/02/07 20:41:39;;;;;;;;;;;6.50;94.30;;;;;;6249891;23;20039;-92
2022/02/07 20:47:17;;;;;;;;;;;6.50;94.40;;;;;;6235404;23;19904;-89
2022/02/07 20:50:03;;;;;;;;;;;6.50;94.40;;;;;;6202606;23;19915;-93
2022/02/07 20:52:29;;;;;;;;;;;6.50;94.40;;;;;;6248873;23;19939;-91
2022/02/07 20:55:05;;;;;;;;;;;6.40;94.40;;;;;;6198102;23;19914;-92
2022/02/07 20:57:33;;;;;;;;;;;6.40;94.60;;;;;;6200053;23;19914;-93
2022/02/07 21:00:12;;;;;;;;;;;6.40;94.50;;;;;;6223806;23;20210;-90
2022/02/07 21:02:38;;;;;;;;;;;6.40;94.50;;;;;;6223645;23;19911;-91
2022/02/07 21:05:18;;;;;;;;;;;6.40;94.60;;;;;;6223861;23;19908;-91
2022/02/07 21:11:19;;;;;;;;;;;;;;;;;;;;;
2022/02/07 21:13:57;;;;;;;;;;;;;;;;;;;;;
2022/02/07 21:16:37;;;;;;;;;;;6.50;94.70;;;;;;6224925;23;19999;-93
2022/02/07 21:22:25;;;;;;;;;;;;;;;;;;;;;
2022/02/07 21:25:11;;;;;;;;;;;6.50;94.70;;;;;;6250357;23;20393;-92
2022/02/07 21:28:20;;;;;;;;;;;6.50;94.70;;;;;;6201406;23;19908;-94
2022/02/07 21:33:55;;;;;;;;;;;;;;;;;;;;;
2022/02/07 21:39:39;;;;;;;;;;;6.70;94.60;;;;;;6209737;23;19955;-93
2022/02/07 21:54:30;;;;;;;;;;;6.80;94.40;;;;;;6212472;23;19912;-93
2022/02/07 21:57:18;;;;;;;;;;;;;;;;;;;;;
2022/02/07 22:02:56;;;;;;;;;;;;;;;;;;;;;
2022/02/07 22:05:22;;;;;;;;;;;6.90;94.50;;;;;;6250160;23;19943;-94
2022/02/07 22:07:49;;;;;;;;;;;6.90;94.50;;;;;;6222401;23;19923;-94
2022/02/07 22:10:37;;;;;;;;;;;6.90;94.60;;;;;;6222614;23;19919;-93
2022/02/07 22:13:17;;;;;;;;;;;6.90;94.60;;;;;;6213559;23;19942;-95
2022/02/07 22:18:49;;;;;;;;;;;;;;;;;;;;;
2022/02/07 22:21:34;;;;;;;;;;;;;;;;;;;;;
2022/02/07 22:24:13;;;;;;;;;;;;;;;;;;;;;
2022/02/07 22:30:05;;;;;;;;;;;6.90;94.60;;;;;;6198781;23;19939;-93
2022/02/07 22:33:00;;;;;;;;;;;7.00;94.70;;;;;;6214776;23;19926;-95
2022/02/07 22:35:43;;;;;;;;;;;7.00;94.70;;;;;;6200496;23;19914;-94
2022/02/07 22:38:21;;;;;;;;;;;;;;;;;;;;;
2022/02/07 22:41:07;;;;;;;;;;;;;;;;;;;;;
2022/02/07 22:44:06;;;;;;;;;;;;;;;;;;;;;
2022/02/07 22:47:00;;;;;;;;;;;7.10;94.90;;;;;;6222580;23;19986;-93
2022/02/07 23:01:32;;;;;;;;;;;7.20;95.10;;;;;;6127039;23;19991;-94
2022/02/07 23:04:38;;;;;;;;;;;7.20;95.20;;;;;;6126646;23;19945;-93
2022/02/07 23:07:37;;;;;;;;;;;7.20;95.30;;;;;;6247955;23;20226;-93
2022/02/07 23:11:14;;;;;;;;;;;7.20;95.40;;;;;;6227379;23;20249;-94
2022/02/07 23:22:18;;;;;;;;;;;7.30;95.60;;;;;;6239210;23;19933;-93
2022/02/07 23:36:37;;;;;;;;;;;7.30;95.90;;;;;;6258157;23;19968;-94
2022/02/07 23:39:34;;;;;;;;;;;;;;;;;;;;;
2022/02/07 23:48:17;;;;;;;;;;;7.40;96.10;;;;;;6247862;23;19904;-93
2022/02/07 23:51:20;;;;;;;;;;;7.40;96.20;;;;;;6224681;23;19904;-93
